Time;durP1;ratioP1;P1;durP2;ratioP2;P2;SDS_P1;SDS_P2;PMS_P1;PMS_P2;Temp;Humidity;BMP_temperature;BMP_pressure;BME280_temperature;BME280_humidity;BME280_pressure;Samples;Min_cycle;Max_cycle;Signal;HPM_P1;HPM_P2
2022/05/23 00:02:44;;;;;;;4.63;3.00;;;24.90;40.60;;;;;;8295222;28;20038;-42
2022/05/23 00:06:46;;;;;;;3.65;2.90;;;24.90;40.60;;;;;;8294518;28;20455;-42
2022/05/23 00:10:46;;;;;;;3.35;2.50;;;24.90;40.60;;;;;;8295732;28;20035;-41
2022/05/23 00:14:47;;;;;;;2.78;2.58;;;24.90;40.60;;;;;;8294790;28;20034;-42
2022/05/23 00:18:48;;;;;;;2.58;2.33;;;24.90;40.60;;;;;;8294500;28;20336;-42
2022/05/23 00:22:50;;;;;;;2.47;2.28;;;24.90;40.60;;;;;;8294430;28;20042;-42
2022/05/23 00:26:51;;;;;;;3.13;2.35;;;24.90;40.60;;;;;;8294776;28;20065;-42
2022/05/23 00:30:52;;;;;;;;;;;24.90;40.60;;;;;;8294685;28;20037;-41
2022/05/23 00:39:11;;;;;;;3.70;3.00;;;24.90;40.70;;;;;;8293356;28;20088;-42
2022/05/23 00:43:30;;;;;;;3.88;2.58;;;24.80;40.60;;;;;;8293828;28;20475;-42
2022/05/23 00:47:34;;;;;;;3.67;2.85;;;24.80;40.60;;;;;;8293664;28;20100;-42
2022/05/23 00:51:35;;;;;;;2.97;2.70;;;24.80;40.60;;;;;;8293483;28;20030;-42
2022/05/23 00:55:47;;;;;;;3.40;2.77;;;24.80;40.60;;;;;;8294094;28;20034;-42
2022/05/23 00:59:48;;;;;;;3.88;2.75;;;24.80;41.10;;;;;;8293649;28;20269;-41
2022/05/23 01:03:50;;;;;;;2.60;2.40;;;24.80;40.60;;;;;;8292799;28;20065;-42
2022/05/23 01:07:50;;;;;;;3.05;2.72;;;24.80;40.60;;;;;;8293380;28;20073;-42
2022/05/23 01:11:51;;;;;;;2.50;2.30;;;24.80;40.60;;;;;;8292422;28;20553;-42
2022/05/23 01:15:52;;;;;;;3.42;2.67;;;24.80;40.60;;;;;;8292848;28;20111;-42
2022/05/23 01:19:52;;;;;;;4.40;2.80;;;24.80;40.70;;;;;;8292896;28;20107;-42
2022/05/23 01:24:23;;;;;;;4.03;2.47;;;24.70;40.60;;;;;;8292952;28;20091;-42
2022/05/23 01:28:24;;;;;;;3.20;2.60;;;24.80;40.70;;;;;;8291708;28;20053;-41
2022/05/23 01:32:24;;;;;;;2.72;2.53;;;24.70;40.70;;;;;;8292419;28;20022;-41
2022/05/23 01:36:25;;;;;;;3.08;2.40;;;24.70;40.60;;;;;;8292395;28;20025;-42
2022/05/23 01:40:26;;;;;;;3.00;2.42;;;24.70;40.60;;;;;;8292454;28;20042;-42
2022/05/23 01:44:28;;;;;;;;;;;24.70;40.60;;;;;;8292883;28;20038;-42
2022/05/23 01:48:28;;;;;;;2.42;2.22;;;24.70;40.70;;;;;;8291367;28;19925;-42
2022/05/23 01:52:29;;;;;;;3.05;2.10;;;24.70;40.70;;;;;;8292633;28;20038;-42
2022/05/23 01:56:29;;;;;;;4.05;2.30;;;24.60;40.60;;;;;;8292160;28;20042;-42
2022/05/23 02:04:50;;;;;;;2.83;2.35;;;24.60;40.80;;;;;;8291714;28;20099;-42
2022/05/23 02:08:51;;;;;;;3.10;2.45;;;24.60;40.70;;;;;;8291640;28;20046;-42
2022/05/23 02:12:51;;;;;;;3.20;2.47;;;24.60;40.70;;;;;;8291311;28;20038;-42
2022/05/23 02:16:52;;;;;;;3.30;2.55;;;24.60;40.60;;;;;;8291193;28;20273;-42
2022/05/23 02:20:53;;;;;;;2.40;2.17;;;24.60;40.70;;;;;;8291381;28;20711;-42
2022/05/23 02:24:53;;;;;;;2.72;2.40;;;24.60;40.70;;;;;;8290745;28;20414;-40
2022/05/23 02:28:54;;;;;;;2.50;2.30;;;24.60;40.70;;;;;;8291170;28;20056;-40
2022/05/23 02:32:55;;;;;;;3.50;2.40;;;24.60;40.70;;;;;;8291252;28;20125;-41
2022/05/23 02:36:55;;;;;;;2.72;2.53;;;24.60;40.70;;;;;;8290623;28;20534;-41
2022/05/23 02:40:56;;;;;;;4.13;2.42;;;24.60;40.70;;;;;;8291441;28;20030;-41
2022/05/23 02:44:56;;;;;;;3.08;2.78;;;24.60;40.70;;;;;;8291311;28;20042;-41
2022/05/23 02:48:57;;;;;;;2.78;2.50;;;24.60;40.70;;;;;;8290285;28;20132;-40
2022/05/23 02:52:58;;;;;;;2.65;2.20;;;24.50;40.70;;;;;;8291092;28;20487;-42
2022/05/23 02:56:58;;;;;;;2.85;2.55;;;24.50;40.60;;;;;;8291060;28;20034;-40
2022/05/23 03:00:59;;;;;;;4.07;2.72;;;24.50;40.70;;;;;;8290699;28;20033;-40
2022/05/23 03:05:00;;;;;;;2.55;2.33;;;24.50;41.20;;;;;;8290633;28;20515;-42
2022/05/23 03:09:00;;;;;;;2.47;2.08;;;24.50;40.70;;;;;;8290105;28;20049;-41
2022/05/23 03:13:01;;;;;;;2.60;2.40;;;24.50;40.70;;;;;;8290635;28;20026;-42
2022/05/23 03:17:04;;;;;;;3.03;2.25;;;24.50;40.70;;;;;;8290844;28;20092;-42
2022/05/23 03:26:58;;;;;;;2.65;2.40;;;24.50;41.30;;;;;;8289847;28;20042;-42
2022/05/23 03:29:52;;;;;;;2.50;2.20;;;24.50;40.80;;;;;;8290383;28;20057;-42
2022/05/23 03:33:52;;;;;;;2.53;2.13;;;24.50;40.80;;;;;;8291735;28;20338;-42
2022/05/23 03:37:53;;;;;;;2.85;2.50;;;24.50;40.80;;;;;;8296139;28;20033;-42
2022/05/23 03:41:54;;;;;;;2.88;2.33;;;24.50;40.80;;;;;;8297006;28;20034;-42
2022/05/23 03:46:02;;;;;;;3.13;2.55;;;24.50;40.80;;;;;;8294984;28;20606;-42
2022/05/23 03:50:03;;;;;;;2.20;2.00;;;24.40;40.70;;;;;;8295874;28;20377;-41
2022/05/23 03:54:04;;;;;;;;;;;24.40;40.80;;;;;;8296079;28;20076;-41
2022/05/23 03:58:04;;;;;;;2.60;2.40;;;24.40;40.70;;;;;;8295432;28;19944;-42
2022/05/23 04:02:05;;;;;;;2.60;2.40;;;24.40;40.80;;;;;;8295436;28;20419;-42
2022/05/23 04:06:06;;;;;;;3.03;2.20;;;24.40;40.80;;;;;;8294390;28;20057;-41
2022/05/23 04:10:11;;;;;;;2.30;2.10;;;24.40;40.80;;;;;;8295374;28;20080;-42
2022/05/23 04:14:11;;;;;;;4.68;2.65;;;24.40;40.80;;;;;;8295344;28;20101;-42
2022/05/23 04:18:12;;;;;;;2.42;2.22;;;24.40;40.80;;;;;;8294296;28;20447;-41
2022/05/23 04:22:12;;;;;;;2.50;2.30;;;24.40;40.80;;;;;;8294841;28;20127;-42
2022/05/23 04:26:13;;;;;;;3.80;2.42;;;24.40;40.80;;;;;;8294928;28;20180;-41
2022/05/23 04:30:14;;;;;;;2.42;2.22;;;24.40;40.80;;;;;;8293955;28;20037;-42
2022/05/23 04:38:37;;;;;;;3.13;2.17;;;24.40;40.80;;;;;;8294159;28;20111;-42
2022/05/23 04:42:37;;;;;;;2.57;2.37;;;24.30;40.70;;;;;;8293721;28;20022;-42
2022/05/23 04:49:39;;;;;;;2.67;2.40;;;24.30;40.70;;;;;;8293799;28;20045;-41
2022/05/23 04:50:58;;;;;;;3.13;2.47;;;24.30;40.80;;;;;;8293649;28;20045;-42
2022/05/23 04:54:59;;;;;;;4.43;2.35;;;24.30;40.80;;;;;;8293210;28;20044;-41
2022/05/23 04:58:59;;;;;;;2.67;2.40;;;24.30;40.80;;;;;;8293538;28;20038;-42
2022/05/23 05:03:00;;;;;;;2.88;2.50;;;24.30;40.80;;;;;;8292831;28;20703;-42
2022/05/23 05:07:01;;;;;;;;;;;24.30;40.80;;;;;;8293813;28;20038;-42
2022/05/23 05:11:04;;;;;;;3.43;2.27;;;24.30;40.80;;;;;;8293339;28;19936;-41
2022/05/23 05:15:04;;;;;;;2.75;2.40;;;24.30;40.80;;;;;;8292648;28;20064;-42
2022/05/23 05:19:05;;;;;;;2.55;1.98;;;24.30;40.80;;;;;;8292884;28;20034;-42
2022/05/23 05:23:06;;;;;;;2.72;2.17;;;24.30;40.80;;;;;;8293137;28;20038;-42
2022/05/23 05:27:06;;;;;;;2.47;2.10;;;24.30;40.80;;;;;;8292132;28;20192;-42
2022/05/23 05:31:12;;;;;;;2.63;2.40;;;24.30;40.80;;;;;;8292828;28;20037;-42
2022/05/23 05:35:46;;;;;;;3.30;2.42;;;24.30;40.80;;;;;;8293127;28;20030;-42
2022/05/23 05:39:48;;;;;;;2.35;2.08;;;24.30;40.80;;;;;;8278447;28;20034;-42
2022/05/23 05:43:56;;;;;;;2.70;2.50;;;24.30;40.80;;;;;;8292539;28;20029;-42
2022/05/23 05:47:58;;;;;;;2.50;2.13;;;24.30;40.80;;;;;;8292284;28;20100;-42
2022/05/23 05:52:01;;;;;;;2.40;2.20;;;24.30;40.70;;;;;;8291464;28;20026;-42
2022/05/23 05:56:04;;;;;;;2.42;2.22;;;24.30;40.70;;;;;;8291550;28;20042;-42
2022/05/23 06:00:06;;;;;;;2.58;2.38;;;24.30;40.70;;;;;;8291184;28;20938;-42
2022/05/23 06:04:08;;;;;;;2.28;2.08;;;24.30;40.70;;;;;;8291451;28;20034;-42
2022/05/23 06:12:27;;;;;;;3.30;2.40;;;24.30;40.70;;;;;;8290806;28;20045;-42
2022/05/23 06:16:33;;;;;;;3.13;2.30;;;24.30;40.70;;;;;;8291405;28;20038;-42
2022/05/23 06:20:34;;;;;;;3.17;2.03;;;24.30;40.70;;;;;;8290850;28;20323;-42
2022/05/23 06:24:35;;;;;;;2.58;2.20;;;24.30;40.70;;;;;;8290906;28;20064;-41
2022/05/23 06:28:36;;;;;;;1.90;1.80;;;24.30;40.70;;;;;;8291072;28;20124;-42
2022/05/23 06:32:37;;;;;;;2.50;1.90;;;24.30;40.60;;;;;;8291313;28;20533;-41
2022/05/23 06:36:38;;;;;;;2.53;2.25;;;24.30;40.60;;;;;;8290311;28;20036;-42
2022/05/23 06:40:38;;;;;;;2.58;2.22;;;24.30;40.60;;;;;;8291358;28;20087;-41
2022/05/23 06:44:39;;;;;;;4.00;2.13;;;24.30;40.60;;;;;;8290854;28;20026;-42
2022/05/23 06:48:39;;;;;;;2.47;2.27;;;24.30;40.60;;;;;;8290260;28;20681;-41
2022/05/23 06:52:40;;;;;;;2.85;2.22;;;24.30;40.60;;;;;;8290896;28;20044;-42
2022/05/23 06:56:42;;;;;;;3.05;2.50;;;24.30;40.60;;;;;;8291186;28;20418;-42
2022/05/23 07:00:43;;;;;;;3.17;2.33;;;24.40;40.60;;;;;;8290099;28;20060;-42
2022/05/23 07:13:22;;;;;;;2.50;2.30;;;24.30;40.50;;;;;;8297080;28;20068;-42
2022/05/23 07:17:24;;;;;;;2.43;2.20;;;24.40;40.60;;;;;;8296306;28;20038;-41
2022/05/23 07:21:24;;;;;;;2.05;1.85;;;24.40;40.50;;;;;;8296141;28;20038;-42
2022/05/23 07:25:25;;;;;;;4.18;2.30;;;24.40;40.50;;;;;;8296618;28;20572;-43
2022/05/23 07:29:27;;;;;;;2.33;2.17;;;24.40;40.60;;;;;;8296777;28;20030;-41
2022/05/23 07:33:28;;;;;;;2.22;1.98;;;24.40;40.50;;;;;;8295829;28;20032;-42
2022/05/23 07:37:28;;;;;;;2.10;1.90;;;24.40;40.50;;;;;;8295996;28;20060;-42
2022/05/23 07:41:29;;;;;;;2.13;1.92;;;24.40;40.50;;;;;;8296040;28;20399;-42
2022/05/23 07:45:29;;;;;;;2.50;2.13;;;24.40;40.50;;;;;;8294880;28;20121;-41
2022/05/23 07:49:30;;;;;;;2.60;2.00;;;24.50;40.50;;;;;;8295467;28;20465;-42
2022/05/23 08:02:10;;;;;;;2.67;2.20;;;24.50;40.50;;;;;;8295397;28;20041;-43
2022/05/23 08:06:11;;;;;;;3.03;2.13;;;24.50;40.40;;;;;;8294651;28;20061;-42
2022/05/23 08:10:11;;;;;;;2.70;2.13;;;24.50;40.50;;;;;;8295607;28;20033;-44
2022/05/23 08:14:12;;;;;;;3.38;1.98;;;24.50;40.50;;;;;;8295036;28;20112;-44
2022/05/23 08:18:16;;;;;;;3.75;2.97;;;24.50;40.50;;;;;;8294802;28;20033;-44
2022/05/23 08:22:19;;;;;;;2.35;2.15;;;24.50;40.50;;;;;;8294663;28;20037;-44
2022/05/23 08:26:20;;;;;;;2.28;2.08;;;24.50;40.40;;;;;;8294683;28;20053;-44
2022/05/23 08:30:22;;;;;;;2.58;2.10;;;24.60;40.50;;;;;;8293819;28;20226;-44
2022/05/23 08:34:22;;;;;;;2.28;2.05;;;24.60;40.40;;;;;;8294545;28;20037;-43
2022/05/23 08:38:23;;;;;;;2.20;2.00;;;24.60;40.40;;;;;;8294642;28;20026;-44
2022/05/23 08:42:47;;;;;;;2.20;2.00;;;24.60;40.40;;;;;;8293802;28;20041;-44
2022/05/23 08:47:16;;;;;;;2.67;1.95;;;24.60;40.40;;;;;;8294118;28;20402;-44
2022/05/23 08:51:22;;;;;;;2.97;1.88;;;24.60;40.40;;;;;;8293549;28;20510;-43
2022/05/23 08:55:35;;;;;;;2.30;2.10;;;24.60;40.40;;;;;;8293665;28;20120;-43
2022/05/23 08:59:43;;;;;;;2.20;2.00;;;24.60;40.40;;;;;;8293923;28;20037;-43
2022/05/23 09:03:50;;;;;;;3.20;2.30;;;24.70;40.50;;;;;;8293678;28;20026;-42
2022/05/23 09:08:01;;;;;;;2.65;1.98;;;24.70;40.40;;;;;;8293423;28;20046;-43
2022/05/23 09:12:09;;;;;;;3.35;2.28;;;24.70;40.40;;;;;;8292571;28;20407;-43
2022/05/23 09:16:12;;;;;;;2.47;2.15;;;24.70;40.30;;;;;;8292941;28;20483;-43
2022/05/23 09:20:18;;;;;;;3.03;2.03;;;24.80;40.40;;;;;;8293093;28;20063;-43
2022/05/23 09:24:19;;;;;;;1.90;1.80;;;24.80;40.30;;;;;;8292459;28;20077;-42
2022/05/23 09:28:33;;;;;;;3.05;2.03;;;24.80;40.40;;;;;;8292528;28;20065;-45
2022/05/23 09:32:48;;;;;;;2.03;1.80;;;24.80;40.30;;;;;;8292104;28;20037;-48
2022/05/23 09:36:48;;;;;;;2.22;2.03;;;24.80;40.30;;;;;;8291480;28;20045;-47
2022/05/23 09:40:50;;;;;;;1.88;1.77;;;24.80;40.30;;;;;;8292485;28;20109;-45
2022/05/23 09:49:15;;;;;;;1.92;1.83;;;24.80;40.30;;;;;;8291747;28;20056;-41
2022/05/23 09:53:17;;;;;;;3.20;2.03;;;24.80;40.40;;;;;;8291976;28;20494;-41
2022/05/23 09:57:34;;;;;;;1.90;1.80;;;24.80;40.50;;;;;;8291214;28;20037;-42
2022/05/23 10:01:34;;;;;;;3.33;2.13;;;24.80;40.60;;;;;;8291913;28;20042;-44
2022/05/23 10:05:41;;;;;;;2.30;1.80;;;24.80;40.70;;;;;;8291893;28;20100;-46
2022/05/23 10:10:01;;;;;;;2.95;2.40;;;24.80;40.90;;;;;;8291214;28;20037;-46
2022/05/23 10:14:05;;;;;;;2.72;2.08;;;24.80;40.80;;;;;;8291565;28;20034;-46
2022/05/23 10:18:10;;;;;;;4.55;2.55;;;24.80;40.90;;;;;;8290803;28;20034;-46
2022/05/23 10:22:20;;;;;;;2.33;2.10;;;24.70;40.80;;;;;;8291266;28;20084;-46
2022/05/23 10:26:24;;;;;;;2.75;2.10;;;24.80;40.90;;;;;;8291226;28;20069;-44
2022/05/23 10:30:30;;;;;;;2.85;2.10;;;24.70;40.90;;;;;;8290828;28;20435;-45
2022/05/23 10:34:39;;;;;;;3.15;2.40;;;24.70;40.90;;;;;;8291301;28;20030;-45
2022/05/23 10:43:20;;;;;;;2.33;2.03;;;24.70;41.00;;;;;;8292639;28;20108;-44
2022/05/23 10:47:46;;;;;;;2.83;2.38;;;24.70;40.90;;;;;;8297405;28;20335;-44
2022/05/23 10:52:15;;;;;;;3.10;1.90;;;24.70;41.00;;;;;;8297065;28;20402;-44
2022/05/23 10:56:19;;;;;;;2.92;2.17;;;24.70;41.00;;;;;;8297403;28;20081;-44
2022/05/23 11:00:28;;;;;;;3.05;2.30;;;24.80;41.00;;;;;;8296719;28;20049;-44
2022/05/23 11:04:43;;;;;;;3.38;2.20;;;24.80;41.00;;;;;;8297706;28;20084;-45
2022/05/23 11:09:04;;;;;;;3.03;2.22;;;24.80;41.00;;;;;;8296552;28;20057;-41
2022/05/23 11:13:04;;;;;;;3.67;1.75;;;24.80;41.00;;;;;;8295955;28;20485;-40
2022/05/23 11:17:32;;;;;;;2.55;2.03;;;24.90;41.00;;;;;;8296610;28;20052;-40
2022/05/23 11:21:51;;;;;;;3.13;2.22;;;24.90;41.00;;;;;;8296009;28;20041;-41
2022/05/23 11:26:00;;;;;;;2.65;2.05;;;24.90;41.10;;;;;;8296621;28;20495;-41
2022/05/23 11:34:31;;;;;;;3.33;2.15;;;25.00;40.90;;;;;;8296639;28;20092;-41
2022/05/23 11:38:32;;;;;;;3.17;1.90;;;25.00;41.00;;;;;;8295930;28;20030;-41
2022/05/23 11:42:49;;;;;;;3.50;2.15;;;25.00;41.00;;;;;;8295461;28;20038;-41
2022/05/23 11:47:36;;;;;;;3.17;2.17;;;25.00;41.00;;;;;;8295593;28;20082;-42
2022/05/23 11:51:38;;;;;;;3.00;1.80;;;25.00;41.00;;;;;;8226057;28;20100;-41
2022/05/23 11:55:50;;;;;;;2.83;1.92;;;25.00;40.80;;;;;;8294968;28;20030;-40
2022/05/23 11:59:52;;;;;;;3.47;2.10;;;25.10;40.90;;;;;;8295912;28;20029;-41
2022/05/23 12:03:57;;;;;;;2.83;2.05;;;25.10;40.90;;;;;;8294787;28;20041;-40
2022/05/23 12:08:02;;;;;;;2.33;1.98;;;25.10;40.80;;;;;;8295500;28;20580;-41
2022/05/23 12:12:24;;;;;;;5.38;2.08;;;25.20;40.90;;;;;;8294707;28;20026;-44
2022/05/23 12:16:31;;;;;;;3.35;1.75;;;25.20;41.00;;;;;;8294895;28;20113;-42
2022/05/23 12:20:42;;;;;;;2.40;1.88;;;25.20;40.90;;;;;;8295334;28;20042;-44
2022/05/23 12:25:07;;;;;;;3.53;2.20;;;25.20;40.90;;;;;;8294502;28;20110;-43
2022/05/23 12:29:28;;;;;;;4.45;2.38;;;25.20;40.80;;;;;;8294367;28;20084;-43
2022/05/23 12:33:29;;;;;;;3.35;2.40;;;25.30;40.80;;;;;;8294167;28;20026;-41
2022/05/23 12:37:38;;;;;;;3.30;2.45;;;25.30;40.80;;;;;;8294200;28;20037;-40
2022/05/23 12:42:05;;;;;;;3.40;1.92;;;25.30;40.80;;;;;;8294428;28;20022;-40
2022/05/23 12:46:35;;;;;;;3.25;2.03;;;25.30;40.80;;;;;;8293839;28;20049;-40
2022/05/23 12:50:58;;;;;;;3.38;2.00;;;25.30;40.70;;;;;;8294190;28;20430;-40
2022/05/23 12:55:25;;;;;;;3.00;2.10;;;25.40;40.90;;;;;;8264948;28;20034;-40
2022/05/23 12:59:50;;;;;;;2.47;2.17;;;25.40;40.80;;;;;;8293584;28;20030;-41
2022/05/23 13:04:08;;;;;;;2.63;1.85;;;25.40;40.80;;;;;;8292736;28;20060;-41
2022/05/23 13:08:11;;;;;;;2.40;1.92;;;25.40;40.90;;;;;;8292196;28;20042;-40
2022/05/23 13:12:24;;;;;;;3.08;2.20;;;25.40;40.80;;;;;;8292762;28;20487;-39
2022/05/23 13:16:33;;;;;;;3.60;2.00;;;25.40;40.70;;;;;;8293129;28;20030;-40
2022/05/23 13:24:57;;;;;;;3.27;2.17;;;25.50;40.80;;;;;;8292058;28;20088;-40
2022/05/23 13:28:57;;;;;;;2.53;2.30;;;25.50;40.70;;;;;;8292755;28;20682;-41
2022/05/23 13:33:14;;;;;;;5.25;2.50;;;25.50;40.60;;;;;;8292433;28;20117;-41
2022/05/23 13:37:37;;;;;;;3.75;2.63;;;25.50;40.60;;;;;;8292785;28;20384;-41
2022/05/23 13:41:37;;;;;;;3.22;2.17;;;25.50;40.60;;;;;;8292604;28;20407;-41
2022/05/23 13:45:40;;;;;;;3.38;2.33;;;25.50;40.60;;;;;;8291959;28;20105;-41
2022/05/23 13:49:58;;;;;;;4.03;2.60;;;25.40;40.50;;;;;;8292063;28;20034;-41
2022/05/23 13:54:12;;;;;;;3.30;2.65;;;25.50;40.60;;;;;;8291781;28;20058;-40
2022/05/23 13:58:17;;;;;;;2.05;1.83;;;25.40;40.50;;;;;;8291622;28;20578;-40
2022/05/23 14:02:21;;;;;;;2.47;1.90;;;25.40;40.60;;;;;;8291617;28;20305;-41
2022/05/23 14:06:26;;;;;;;3.08;2.25;;;25.40;40.60;;;;;;8291453;28;20034;-40
2022/05/23 14:10:28;;;;;;;2.45;2.13;;;25.40;40.70;;;;;;8291560;28;20041;-41
2022/05/23 14:14:34;;;;;;;3.47;2.25;;;25.40;40.70;;;;;;8291196;28;20510;-42
2022/05/23 14:18:34;;;;;;;2.72;2.10;;;25.40;40.80;;;;;;8290818;28;20049;-41
2022/05/23 14:22:35;;;;;;;4.28;2.15;;;25.40;40.80;;;;;;8291414;28;20069;-40
2022/05/23 14:26:35;;;;;;;;;;;25.30;40.80;;;;;;8261465;28;20042;-41
2022/05/23 14:30:37;;;;;;;2.83;2.33;;;25.30;40.80;;;;;;8290957;28;20015;-41
2022/05/23 14:34:38;;;;;;;3.00;1.98;;;25.30;40.80;;;;;;8291385;28;20041;-45
2022/05/23 14:39:02;;;;;;;2.67;2.25;;;25.30;40.90;;;;;;8291076;28;20129;-41
2022/05/23 14:43:08;;;;;;;5.25;2.40;;;25.30;41.00;;;;;;8290723;28;20034;-41
2022/05/23 14:47:14;;;;;;;3.08;2.20;;;25.20;40.90;;;;;;8290497;28;20061;-43
2022/05/23 14:51:34;;;;;;;3.42;2.45;;;25.20;40.90;;;;;;8290322;28;20069;-42
2022/05/23 14:56:09;;;;;;;3.30;2.30;;;25.20;41.00;;;;;;8290454;28;20038;-40
2022/05/23 15:00:38;;;;;;;3.17;2.67;;;25.20;41.10;;;;;;8286860;28;20404;-41
2022/05/23 15:04:40;;;;;;;3.42;2.40;;;25.20;41.20;;;;;;8290471;28;20503;-40
2022/05/23 15:08:42;;;;;;;6.78;2.75;;;25.20;41.20;;;;;;8290326;28;20042;-41
2022/05/23 15:12:43;;;;;;;2.92;2.38;;;25.20;41.80;;;;;;8289882;28;20033;-41
2022/05/23 15:16:44;;;;;;;3.70;3.03;;;25.20;41.30;;;;;;8290537;28;20053;-42
2022/05/23 15:20:48;;;;;;;3.28;2.63;;;25.10;41.30;;;;;;8290144;28;20165;-40
2022/05/23 15:24:49;;;;;;;4.20;2.75;;;25.10;41.30;;;;;;8289677;28;20419;-41
2022/05/23 15:28:50;;;;;;;;;;;25.10;41.80;;;;;;8290361;28;20141;-41
2022/05/23 15:32:52;;;;;;;3.53;2.92;;;25.10;41.30;;;;;;8296038;28;19909;-40
2022/05/23 15:36:53;;;;;;;2.78;2.35;;;25.10;41.40;;;;;;8295408;28;20030;-42
2022/05/23 15:40:54;;;;;;;4.60;2.42;;;25.10;41.40;;;;;;8295689;28;20038;-42
2022/05/23 15:44:56;;;;;;;5.78;2.78;;;25.10;41.30;;;;;;8295784;28;20103;-42
2022/05/23 15:48:57;;;;;;;4.00;3.05;;;25.10;41.40;;;;;;8295347;28;20137;-42
2022/05/23 15:52:57;;;;;;;4.15;3.08;;;25.10;41.40;;;;;;8295330;28;20096;-40
2022/05/23 15:57:00;;;;;;;4.85;2.60;;;25.10;41.40;;;;;;8295304;28;20038;-41
2022/05/23 16:01:00;;;;;;;3.53;2.58;;;25.10;41.40;;;;;;8295017;28;20041;-41
2022/05/23 16:05:01;;;;;;;5.10;2.85;;;25.10;41.40;;;;;;8294933;28;20062;-41
2022/05/23 16:09:01;;;;;;;4.18;2.70;;;25.10;42.00;;;;;;8294554;28;20068;-41
2022/05/23 16:13:11;;;;;;;;;;;25.00;41.40;;;;;;8295074;28;20038;-41
2022/05/23 16:17:12;;;;;;;3.72;2.63;;;25.10;41.50;;;;;;8294874;28;19974;-41
2022/05/23 16:21:12;;;;;;;6.05;2.55;;;25.00;41.50;;;;;;8293716;28;20029;-41
2022/05/23 16:25:13;;;;;;;3.80;2.97;;;25.00;41.50;;;;;;8294586;28;20187;-41
2022/05/23 16:29:14;;;;;;;3.42;2.55;;;25.00;41.60;;;;;;8293987;28;20062;-41
2022/05/23 16:37:34;;;;;;;3.22;2.50;;;25.00;41.60;;;;;;8293974;28;20045;-41
2022/05/23 16:41:36;;;;;;;4.55;3.00;;;25.10;41.60;;;;;;8293810;28;20081;-41
2022/05/23 16:45:36;;;;;;;3.88;3.08;;;25.10;41.60;;;;;;8293046;28;20034;-41
2022/05/23 16:49:37;;;;;;;4.50;2.67;;;25.00;41.50;;;;;;8293320;28;20052;-41
2022/05/23 16:53:38;;;;;;;3.03;2.53;;;25.00;41.50;;;;;;8293385;28;20092;-41
2022/05/23 16:57:38;;;;;;;3.65;2.42;;;25.00;41.50;;;;;;8292714;28;20034;-41
2022/05/23 17:01:39;;;;;;;4.45;2.63;;;25.00;41.40;;;;;;8293537;28;20040;-41
2022/05/23 17:05:40;;;;;;;5.07;2.75;;;25.00;41.50;;;;;;8293108;28;20033;-41
2022/05/23 17:09:40;;;;;;;3.60;2.90;;;25.00;41.50;;;;;;8292950;28;20045;-41
2022/05/23 17:13:41;;;;;;;4.32;2.90;;;25.00;41.50;;;;;;8292975;28;20038;-41
2022/05/23 17:17:42;;;;;;;4.22;2.70;;;25.00;41.50;;;;;;8293200;28;20417;-41
2022/05/23 17:21:43;;;;;;;4.07;2.67;;;25.00;41.50;;;;;;8292146;28;20534;-41
2022/05/23 17:25:44;;;;;;;4.38;2.92;;;25.00;41.60;;;;;;8292846;28;20034;-42
2022/05/23 17:29:44;;;;;;;3.42;2.38;;;25.00;41.60;;;;;;8292439;28;20041;-42
2022/05/23 17:33:47;;;;;;;4.85;3.10;;;25.00;41.60;;;;;;8291936;28;20037;-42
2022/05/23 17:37:47;;;;;;;4.93;3.03;;;25.00;41.60;;;;;;8292307;28;20065;-41
2022/05/23 17:41:48;;;;;;;3.80;2.55;;;25.00;41.60;;;;;;8291947;28;20436;-41
2022/05/23 17:45:48;;;;;;;4.10;2.50;;;25.00;41.60;;;;;;8290982;28;20060;-42
2022/05/23 17:49:49;;;;;;;4.47;2.72;;;25.00;41.70;;;;;;8292048;28;20030;-41
2022/05/23 17:53:50;;;;;;;3.83;2.60;;;25.00;41.60;;;;;;8291338;28;20041;-41
2022/05/23 17:57:51;;;;;;;3.17;2.55;;;25.00;41.60;;;;;;8291492;28;20030;-41
2022/05/23 18:01:53;;;;;;;4.80;2.15;;;25.00;41.70;;;;;;8291525;28;20032;-41
2022/05/23 18:05:54;;;;;;;3.80;2.60;;;25.00;41.70;;;;;;8291561;28;20060;-41
2022/05/23 18:09:55;;;;;;;5.55;2.60;;;25.00;41.70;;;;;;8290722;28;20125;-41
2022/05/23 18:22:34;;;;;;;2.88;2.40;;;25.00;41.70;;;;;;8291705;28;20041;-40
2022/05/23 18:26:36;;;;;;;4.50;2.60;;;24.90;41.70;;;;;;8291223;28;20049;-40
2022/05/23 18:30:38;;;;;;;3.40;2.35;;;25.00;41.70;;;;;;8290467;28;20370;-42
2022/05/23 18:34:39;;;;;;;4.55;2.50;;;24.90;41.70;;;;;;8291350;28;20100;-41
2022/05/23 18:38:39;;;;;;;4.45;2.65;;;25.00;41.80;;;;;;8291245;28;20080;-41
2022/05/23 18:42:40;;;;;;;4.15;2.58;;;24.90;41.80;;;;;;8290946;28;20157;-41
2022/05/23 18:46:41;;;;;;;3.88;2.42;;;25.00;41.90;;;;;;8291645;28;20042;-41
2022/05/23 18:50:42;;;;;;;3.80;2.60;;;24.90;41.80;;;;;;8289477;28;20045;-41
2022/05/23 18:54:43;;;;;;;3.22;2.40;;;24.90;41.90;;;;;;8290714;28;20037;-41
2022/05/23 18:58:43;;;;;;;5.95;2.92;;;24.90;41.90;;;;;;8290399;28;20033;-41
2022/05/23 19:02:44;;;;;;;4.57;2.88;;;24.90;41.90;;;;;;8290804;28;20034;-41
2022/05/23 19:06:44;;;;;;;5.25;2.60;;;24.90;41.90;;;;;;8296193;28;20038;-41
2022/05/23 19:10:50;;;;;;;3.50;2.65;;;24.90;42.00;;;;;;8296950;28;20038;-41
2022/05/23 19:14:51;;;;;;;4.50;2.28;;;24.90;42.00;;;;;;8296990;28;20050;-41
2022/05/23 19:18:52;;;;;;;3.80;2.50;;;24.90;41.90;;;;;;8296654;28;20060;-41
2022/05/23 19:22:54;;;;;;;3.80;2.28;;;24.80;42.00;;;;;;8296522;28;20058;-41
2022/05/23 19:26:55;;;;;;;4.25;2.28;;;24.80;42.00;;;;;;8295887;28;20084;-41
2022/05/23 19:30:56;;;;;;;3.70;2.90;;;24.80;42.00;;;;;;8295424;28;20033;-41
2022/05/23 19:34:56;;;;;;;3.10;2.33;;;24.80;41.90;;;;;;8296143;28;20659;-41
2022/05/23 19:38:58;;;;;;;4.03;2.45;;;24.90;42.10;;;;;;8296231;28;20442;-41
2022/05/23 19:42:58;;;;;;;;;;;24.80;42.10;;;;;;8278373;28;20034;-41
2022/05/23 19:46:59;;;;;;;3.27;2.63;;;24.80;42.10;;;;;;8295622;28;19960;-42
2022/05/23 19:51:00;;;;;;;4.38;2.58;;;24.80;42.10;;;;;;8295568;28;20088;-41
2022/05/23 19:55:01;;;;;;;3.60;2.17;;;24.80;42.10;;;;;;8295667;28;20038;-41
2022/05/23 19:59:06;;;;;;;;;;;24.80;42.10;;;;;;8295940;28;20034;-40
2022/05/23 20:07:27;;;;;;;3.05;2.45;;;24.80;42.20;;;;;;8295660;28;20530;-41
2022/05/23 20:11:28;;;;;;;4.55;2.80;;;24.80;42.20;;;;;;8295087;28;20038;-42
2022/05/23 20:15:32;;;;;;;4.20;2.50;;;24.80;42.30;;;;;;8293879;28;20038;-41
2022/05/23 20:19:33;;;;;;;3.75;2.65;;;24.80;42.30;;;;;;8294815;28;20050;-42
2022/05/23 20:23:33;;;;;;;3.15;2.38;;;24.80;42.30;;;;;;8295001;28;20446;-41
2022/05/23 20:27:34;;;;;;;3.65;2.28;;;24.70;42.20;;;;;;8294147;28;20074;-41
2022/05/23 20:31:34;;;;;;;4.45;2.67;;;24.80;42.30;;;;;;8294549;28;20038;-41
2022/05/23 20:35:36;;;;;;;3.77;2.27;;;24.70;42.20;;;;;;8294295;28;20042;-40
2022/05/23 20:39:37;;;;;;;4.63;2.63;;;24.70;42.30;;;;;;8293464;28;20272;-41
2022/05/23 20:43:38;;;;;;;2.80;2.10;;;24.70;42.30;;;;;;8294661;28;20376;-41
2022/05/23 20:47:41;;;;;;;5.25;2.47;;;24.70;42.20;;;;;;8293807;28;20050;-40
2022/05/23 20:51:42;;;;;;;6.25;2.42;;;24.70;42.30;;;;;;8293204;28;20034;-41
2022/05/23 20:55:45;;;;;;;3.78;2.45;;;24.70;42.20;;;;;;8293738;28;20479;-41
2022/05/23 20:59:46;;;;;;;3.85;2.53;;;24.70;42.30;;;;;;8293679;28;20038;-41
2022/05/23 21:03:46;;;;;;;4.60;2.72;;;24.70;42.20;;;;;;8293360;28;20033;-41
2022/05/23 21:07:48;;;;;;;4.78;2.75;;;24.70;42.30;;;;;;8293215;28;20042;-41
2022/05/23 21:11:49;;;;;;;3.83;2.75;;;24.70;42.30;;;;;;8293279;28;20045;-43
2022/05/23 21:15:50;;;;;;;;;;;24.70;42.30;;;;;;8292943;28;20037;-41
2022/05/23 21:19:50;;;;;;;3.27;2.33;;;24.70;42.30;;;;;;8293293;28;19913;-42
2022/05/23 21:23:51;;;;;;;3.90;2.70;;;24.70;42.30;;;;;;8292792;28;20475;-40
2022/05/23 21:27:54;;;;;;;3.92;2.67;;;24.70;42.30;;;;;;8291429;28;20041;-41
2022/05/23 21:31:55;;;;;;;3.30;2.20;;;24.60;42.30;;;;;;8292842;28;20557;-41
2022/05/23 21:35:57;;;;;;;3.38;2.13;;;24.70;42.30;;;;;;8292644;28;20030;-41
2022/05/23 21:48:36;;;;;;;3.45;2.40;;;24.60;42.30;;;;;;8292382;28;20053;-41
2022/05/23 21:52:37;;;;;;;2.85;2.50;;;24.60;42.30;;;;;;8292401;28;20030;-42
2022/05/23 21:56:38;;;;;;;;;;;24.60;42.30;;;;;;8292446;28;20030;-41
2022/05/23 22:01:48;;;;;;;3.87;2.53;;;24.60;42.20;;;;;;8291538;28;19917;-41
2022/05/23 22:05:08;;;;;;;3.13;2.38;;;24.60;42.20;;;;;;8291683;28;20092;-41
2022/05/23 22:09:09;;;;;;;3.55;2.30;;;24.60;42.30;;;;;;8291682;28;20108;-41
2022/05/23 22:13:10;;;;;;;3.53;1.98;;;24.60;42.80;;;;;;8292063;28;20633;-41
2022/05/23 22:17:10;;;;;;;2.88;2.20;;;24.60;42.20;;;;;;8273599;28;20038;-42
2022/05/23 22:21:11;;;;;;;3.88;2.53;;;24.50;42.20;;;;;;8291022;28;20477;-42
2022/05/23 22:25:11;;;;;;;2.97;2.00;;;24.50;42.20;;;;;;8291518;28;20398;-41
2022/05/23 22:29:12;;;;;;;3.05;2.17;;;24.50;42.20;;;;;;8291324;28;20645;-41
2022/05/23 22:33:12;;;;;;;2.30;2.00;;;24.60;42.30;;;;;;8290350;28;20057;-41
2022/05/23 22:37:13;;;;;;;3.08;2.20;;;24.50;42.20;;;;;;8291179;28;20034;-41
2022/05/23 22:41:14;;;;;;;4.07;2.10;;;24.50;42.20;;;;;;8290893;28;20054;-41